Time;durP1;ratioP1;P1;durP2;ratioP2;P2;SDS_P1;SDS_P2;PMS_P1;PMS_P2;Temp;Humidity;BMP_temperature;BMP_pressure;BME280_temperature;BME280_humidity;BME280_pressure;Samples;Min_cycle;Max_cycle;Signal;HPM_P1;HPM_P2
2023/10/20 00:07:06;;;;;;;63.78;27.88;;;;;;;8.04;81.36;98160.47;31504868;28;20029;-60
2023/10/20 00:22:07;;;;;;;62.67;27.58;;;;;;;7.89;81.13;98112.94;31502861;28;20040;-61
2023/10/20 00:37:07;;;;;;;61.10;27.63;;;;;;;7.90;81.48;98085.38;31501208;28;20037;-60
2023/10/20 00:52:09;;;;;;;61.65;29.15;;;;;;;7.90;81.17;98088.03;31501323;28;20090;-60
2023/10/20 01:07:10;;;;;;;54.65;26.02;;;;;;;7.96;81.62;98124.34;31500701;28;20122;-61
2023/10/20 01:22:11;;;;;;;61.88;26.38;;;;;;;7.93;81.54;98077.84;31498478;28;20153;-62
2023/10/20 01:37:11;;;;;;;58.20;28.05;;;;;;;7.93;81.25;98074.38;31494829;28;30288;-61
2023/10/20 01:52:12;;;;;;;57.75;27.27;;;;;;;7.93;81.43;98064.59;31494057;28;20060;-62
2023/10/20 02:07:12;;;;;;;57.95;26.17;;;;;;;7.96;81.66;98052.75;31493270;28;20033;-60
2023/10/20 02:22:12;;;;;;;59.25;26.58;;;;;;;7.90;81.81;98042.97;31492446;28;20463;-62
2023/10/20 02:37:14;;;;;;;57.10;25.20;;;;;;;7.83;81.35;98011.16;31491636;28;20112;-61
2023/10/20 02:52:15;;;;;;;47.00;24.08;;;;;;;7.76;81.74;98035.03;31500251;28;20390;-60
2023/10/20 03:07:15;;;;;;;49.35;23.42;;;;;;;7.84;81.60;98010.13;31509232;28;20111;-61
2023/10/20 03:22:15;;;;;;;44.67;23.33;;;;;;;7.84;81.90;97982.81;31507252;28;20037;-62
2023/10/20 03:37:16;;;;;;;45.33;22.35;;;;;;;7.75;81.69;98022.81;31505739;28;20037;-60
2023/10/20 03:52:18;;;;;;;49.10;24.55;;;;;;;7.78;81.70;98024.22;31505296;28;20079;-59
2023/10/20 04:07:18;;;;;;;47.92;22.98;;;;;;;7.77;82.13;97982.84;31503223;28;20033;-62
2023/10/20 04:22:19;;;;;;;46.58;25.27;;;;;;;7.87;81.82;98001.78;31501119;28;27803;-61
2023/10/20 05:07:49;;;;;;;48.00;23.95;;;;;;;7.97;81.76;97972.19;31494202;28;20041;-60
2023/10/20 05:22:50;;;;;;;47.53;23.92;;;;;;;7.95;82.43;97945.06;31493932;28;20021;-60
2023/10/20 05:37:51;;;;;;;54.00;25.23;;;;;;;7.91;81.99;97973.84;31491911;28;30251;-59
2023/10/20 05:52:52;;;;;;;41.35;22.10;;;;;;;8.00;82.33;97970.97;31491600;28;20045;-62
2023/10/20 06:07:53;;;;;;;40.53;22.27;;;;;;;8.08;81.91;97926.47;31490677;28;20109;-61
2023/10/20 06:22:53;;;;;;;46.63;22.73;;;;;;;8.14;82.12;97925.63;31492276;28;25207;-60
2023/10/20 06:38:10;;;;;;;43.90;22.63;;;;;;;8.31;82.44;97930.47;31509422;28;20032;-60
2023/10/20 06:53:11;;;;;;;40.65;21.90;;;;;;;8.39;81.94;97924.09;31506876;28;20049;-60
2023/10/20 07:08:13;;;;;;;44.60;23.42;;;;;;;8.42;81.80;97887.34;31508262;28;20063;-60
2023/10/20 07:23:13;;;;;;;43.67;22.52;;;;;;;8.60;81.93;97854.81;31506591;28;20033;-61
2023/10/20 07:38:14;;;;;;;44.97;22.85;;;;;;;8.71;82.16;97871.09;31503453;28;20366;-64
2023/10/20 07:53:14;;;;;;;47.53;22.25;;;;;;;8.82;81.85;97841.19;31500847;28;20033;-62
2023/10/20 08:08:14;;;;;;;51.30;23.90;;;;;;;8.80;81.99;97833.44;31500631;28;22906;-65
2023/10/20 08:23:15;;;;;;;52.97;22.80;;;;;;;8.87;81.83;97801.53;31499275;28;29027;-63
2023/10/20 08:38:15;;;;;;;56.80;23.58;;;;;;;9.08;82.09;97781.69;31496714;28;20033;-60
2023/10/20 08:53:19;;;;;;;55.60;24.02;;;;;;;9.20;82.01;97746.44;31496992;28;23226;-60
2023/10/20 09:08:20;;;;;;;52.45;23.67;;;;;;;9.28;82.14;97738.16;31497009;28;20044;-60
2023/10/20 09:23:20;;;;;;;53.80;24.15;;;;;;;9.41;82.17;97711.44;31496052;28;20033;-64
2023/10/20 09:38:28;;;;;;;53.08;22.52;;;;;;;9.40;82.07;97717.78;31492010;28;20393;-62
2023/10/20 09:53:29;;;;;;;51.33;24.65;;;;;;;9.45;82.01;97712.63;31491850;28;20033;-64
2023/10/20 10:08:30;;;;;;;52.10;24.05;;;;;;;9.55;81.90;97684.72;31490195;28;20037;-64
2023/10/20 10:23:30;;;;;;;49.58;22.45;;;;;;;9.66;82.07;97670.63;31489031;28;20114;-64
2023/10/20 10:38:42;;;;;;;54.00;23.98;;;;;;;9.87;81.98;97671.16;31483957;28;23354;-61
2023/10/20 10:53:43;;;;;;;47.95;22.90;;;;;;;10.06;82.09;97680.72;31485517;28;20029;-62
2023/10/20 11:08:44;;;;;;;46.15;24.13;;;;;;;10.27;81.85;97644.75;31487234;28;20113;-60
2023/10/20 11:23:49;;;;;;;44.65;22.75;;;;;;;10.54;82.21;97612.38;31505820;28;20032;-60
2023/10/20 11:38:49;;;;;;;44.50;23.98;;;;;;;10.66;81.67;97615.00;31502730;28;20409;-59
2023/10/20 11:53:50;;;;;;;50.25;26.95;;;;;;;10.73;81.49;97597.06;31502065;28;20035;-60
2023/10/20 12:08:51;;;;;;;47.22;25.38;;;;;;;10.98;82.11;97574.66;31501646;28;20120;-60
2023/10/20 12:23:51;;;;;;;50.83;25.55;;;;;;;11.17;81.12;97599.25;31498498;28;20526;-60
2023/10/20 12:38:51;;;;;;;41.85;23.23;;;;;;;11.20;81.98;97587.31;31496489;28;27893;-59
2023/10/20 12:53:52;;;;;;;46.53;25.15;;;;;;;11.24;81.54;97573.28;31497716;28;20515;-60
2023/10/20 13:08:52;;;;;;;53.92;25.98;;;;;;;11.35;81.40;97547.63;31495776;28;33040;-61
2023/10/20 13:23:53;;;;;;;46.42;26.05;;;;;;;11.39;81.52;97499.97;31493259;28;20107;-60
2023/10/20 13:38:53;;;;;;;44.67;24.37;;;;;;;11.47;81.72;97519.03;31491908;28;20060;-64
2023/10/20 13:53:53;;;;;;;48.63;25.83;;;;;;;11.51;81.79;97525.50;31490983;28;20275;-62
2023/10/20 14:08:54;;;;;;;48.95;23.98;;;;;;;11.43;81.91;97517.09;31490628;28;26554;-62
2023/10/20 14:23:54;;;;;;;42.72;24.25;;;;;;;11.45;82.09;97530.97;31488327;28;20458;-60
2023/10/20 14:38:54;;;;;;;39.90;23.98;;;;;;;11.46;82.18;97495.28;31488530;28;20057;-66
2023/10/20 14:53:55;;;;;;;39.90;23.45;;;;;;;11.47;82.44;97475.59;31504859;28;20060;-59
2023/10/20 15:08:55;;;;;;;34.47;22.67;;;;;;;11.47;82.63;97513.69;31508148;28;25284;-61
2023/10/20 15:23:56;;;;;;;36.25;22.70;;;;;;;11.50;82.94;97545.19;31506889;28;20124;-65
2023/10/20 15:38:56;;;;;;;34.17;21.30;;;;;;;11.50;82.72;97537.19;31503957;28;20048;-66
2023/10/20 15:53:56;;;;;;;34.05;22.05;;;;;;;11.48;83.08;97523.31;31503766;28;20029;-64
2023/10/20 16:08:58;;;;;;;37.45;22.13;;;;;;;11.47;83.43;97513.69;31500913;28;20025;-62
2023/10/20 16:23:59;;;;;;;41.70;22.08;;;;;;;11.50;83.31;97504.41;31498581;28;20033;-63
2023/10/20 16:38:59;;;;;;;36.33;21.27;;;;;;;11.49;83.31;97510.78;31497895;28;20056;-61
2023/10/20 16:54:00;;;;;;;39.22;22.75;;;;;;;11.51;83.20;97530.03;31495890;28;20036;-65
2023/10/20 17:09:00;;;;;;;39.63;23.25;;;;;;;11.52;83.61;97504.97;31494808;28;20033;-59
2023/10/20 17:24:00;;;;;;;41.45;24.98;;;;;;;11.54;83.76;97496.72;31494155;28;20474;-63
2023/10/20 17:39:02;;;;;;;47.15;25.63;;;;;;;11.54;84.10;97510.06;31491691;28;20059;-59
2023/10/20 17:54:02;;;;;;;45.78;25.60;;;;;;;11.56;84.04;97519.44;31491911;28;20049;-63
2023/10/20 18:09:04;;;;;;;40.85;26.02;;;;;;;11.62;84.22;97504.34;31489955;28;20048;-61
2023/10/20 18:24:07;;;;;;;42.15;24.58;;;;;;;11.68;84.22;97498.81;31489277;28;20417;-68
2023/10/20 18:39:14;;;;;;;44.10;25.93;;;;;;;11.79;84.59;97526.47;31486420;28;20088;-66
2023/10/20 18:54:14;;;;;;;47.42;25.52;;;;;;;11.89;84.48;97519.66;31489252;28;20037;-64
2023/10/20 19:09:14;;;;;;;45.75;25.75;;;;;;;11.93;84.37;97536.81;31486760;28;20044;-60
2023/10/20 19:24:15;;;;;;;45.67;25.45;;;;;;;11.97;84.64;97545.97;31484574;28;28900;-60
2023/10/20 19:39:16;;;;;;;47.77;25.80;;;;;;;11.97;84.56;97521.94;31500926;28;20095;-62
2023/10/20 19:54:17;;;;;;;46.90;25.38;;;;;;;11.95;84.62;97498.19;31501060;28;20224;-63
2023/10/20 20:09:17;;;;;;;46.03;26.35;;;;;;;11.91;84.91;97502.38;31501358;28;20155;-60
2023/10/20 20:24:17;;;;;;;47.80;24.92;;;;;;;11.91;84.81;97528.25;31499864;28;22931;-62
2023/10/20 20:39:18;;;;;;;47.53;25.35;;;;;;;11.87;85.17;97543.13;31500553;28;20051;-62
2023/10/20 20:54:18;;;;;;;50.35;25.83;;;;;;;11.81;84.69;97548.38;31500239;28;20029;-60
2023/10/20 21:09:22;;;;;;;44.50;27.67;;;;;;;11.78;85.03;97546.19;31498397;28;25319;-60
2023/10/20 21:24:23;;;;;;;39.97;24.65;;;;;;;11.82;85.20;97552.66;31497520;28;20029;-61
2023/10/20 21:39:26;;;;;;;45.78;26.13;;;;;;;11.89;85.61;97546.34;31496230;28;20060;-62
2023/10/20 21:54:26;;;;;;;44.67;25.53;;;;;;;11.95;85.38;97588.09;31494988;28;20040;-63
2023/10/20 22:09:27;;;;;;;50.33;26.88;;;;;;;11.94;85.43;97603.28;31493988;28;20033;-60
2023/10/20 22:24:27;;;;;;;47.67;26.38;;;;;;;12.04;85.33;97644.53;31493084;28;20036;-60
2023/10/20 22:39:28;;;;;;;48.60;26.33;;;;;;;12.11;85.70;97667.34;31491403;28;31778;-65
2023/10/20 22:54:28;;;;;;;47.00;25.42;;;;;;;12.14;85.57;97732.75;31489055;28;31372;-63
2023/10/20 23:09:28;;;;;;;59.33;27.05;;;;;;;12.16;85.45;97754.66;31499577;28;20061;-66
2023/10/20 23:24:29;;;;;;;47.47;26.55;;;;;;;12.13;85.68;97781.84;31510604;28;20039;-68
2023/10/20 23:39:30;;;;;;;47.42;24.73;;;;;;;12.17;85.52;97793.66;31508872;28;20048;-62
2023/10/20 23:54:30;;;;;;;45.47;23.80;;;;;;;12.17;85.52;97820.34;31507286;28;20091;-64
